Time;durP1;ratioP1;P1;durP2;ratioP2;P2;SDS_P1;SDS_P2;PMS_P1;PMS_P2;Temp;Humidity;BMP_temperature;BMP_pressure;BME280_temperature;BME280_humidity;BME280_pressure;Samples;Min_cycle;Max_cycle;Signal;HPM_P1;HPM_P2
2021/09/19 00:00:31;;;;;;;7.57;5.30;;;12.00;21.50;;;;;;5057645;28;20469;-49
2021/09/19 00:02:58;;;;;;;7.10;6.27;;;12.00;1.00;;;;;;5057625;28;20498;-53
2021/09/19 00:05:25;;;;;;;6.70;5.23;;;12.00;1.00;;;;;;5057282;28;20462;-50
2021/09/19 00:07:52;;;;;;;7.40;5.33;;;12.00;96.40;;;;;;5057238;28;20519;-53
2021/09/19 00:10:19;;;;;;;5.90;5.40;;;12.00;1.00;;;;;;5056708;28;20497;-47
2021/09/19 00:12:46;;;;;;;6.73;5.83;;;12.00;99.90;;;;;;5057252;28;20497;-52
2021/09/19 00:15:16;;;;;;;7.37;6.67;;;12.00;99.90;;;;;;5057361;28;20462;-50
2021/09/19 00:17:44;;;;;;;6.70;6.00;;;12.10;1.00;;;;;;5057221;28;20462;-49
2021/09/19 00:20:15;;;;;;;7.70;6.47;;;12.20;99.90;;;;;;5056705;28;20512;-47
2021/09/19 00:22:42;;;;;;;7.60;6.00;;;12.20;99.90;;;;;;5057257;28;20501;-52
2021/09/19 00:25:14;;;;;;;9.83;6.10;;;12.20;1.00;;;;;;5057091;28;20519;-47
2021/09/19 00:27:42;;;;;;;6.10;5.50;;;12.20;99.90;;;;;;5057059;28;20464;-50
2021/09/19 00:30:11;;;;;;;8.50;5.93;;;12.20;1.00;;;;;;5056033;28;20469;-56
2021/09/19 00:32:38;;;;;;;6.40;5.80;;;12.20;1.00;;;;;;5056207;28;20516;-56
2021/09/19 00:35:08;;;;;;;5.90;5.40;;;12.20;99.90;;;;;;5055450;28;20490;-52
2021/09/19 00:37:35;;;;;;;6.13;5.43;;;12.20;1.00;;;;;;5056219;28;20462;-57
2021/09/19 00:40:02;;;;;;;5.37;4.87;;;12.20;99.90;;;;;;5056166;28;20454;-51
2021/09/19 00:42:29;;;;;;;5.90;5.40;;;12.20;99.90;;;;;;5056146;28;20462;-53
2021/09/19 00:45:00;;;;;;;6.00;5.37;;;12.20;1.00;;;;;;5056207;28;20512;-53
2021/09/19 00:47:27;;;;;;;5.83;5.33;;;12.20;99.90;;;;;;5056035;28;20494;-51
2021/09/19 00:49:55;;;;;;;6.30;5.70;;;12.20;99.90;;;;;;5055744;28;20437;-53
2021/09/19 00:52:23;;;;;;;6.03;5.53;;;12.10;64.30;;;;;;5059343;28;20481;-56
2021/09/19 00:54:51;;;;;;;6.40;5.60;;;12.00;99.90;;;;;;5059245;28;20534;-56
2021/09/19 00:57:19;;;;;;;7.80;6.70;;;12.00;1.00;;;;;;5059953;28;20497;-55
2021/09/19 00:59:49;;;;;;;7.23;6.53;;;12.00;99.90;;;;;;5059406;28;20489;-55
2021/09/19 01:02:17;;;;;;;7.10;6.50;;;12.00;1.00;;;;;;5059124;28;20510;-48
2021/09/19 01:04:45;;;;;;;7.17;6.03;;;11.90;99.90;;;;;;5058833;28;20458;-54
2021/09/19 01:07:13;;;;;;;6.33;5.80;;;11.90;66.00;;;;;;5059294;28;20523;-55
2021/09/19 01:09:42;;;;;;;6.83;6.20;;;11.90;99.90;;;;;;5055932;28;20470;-52
2021/09/19 01:12:12;;;;;;;6.50;5.90;;;11.90;1.00;;;;;;5039264;28;20462;-54
2021/09/19 01:14:44;;;;;;;6.90;6.30;;;11.80;1.00;;;;;;5039273;28;20473;-53
2021/09/19 01:17:12;;;;;;;6.00;5.50;;;11.70;99.90;;;;;;5039619;28;20549;-48
2021/09/19 01:19:41;;;;;;;6.80;6.20;;;11.70;99.90;;;;;;5039081;28;20841;-53
2021/09/19 01:22:11;;;;;;;7.33;6.50;;;11.60;1.00;;;;;;5039053;28;20514;-53
2021/09/19 01:24:40;;;;;;;6.20;5.60;;;11.60;1.00;;;;;;5039019;28;20917;-52
2021/09/19 01:27:07;;;;;;;6.07;5.47;;;11.70;1.00;;;;;;5039380;28;20520;-57
2021/09/19 01:29:35;;;;;;;5.47;4.97;;;11.70;1.00;;;;;;4998494;28;1170088;-53
2021/09/19 01:32:03;;;;;;;6.03;5.50;;;11.70;1.00;;;;;;5040434;28;20212;-50
2021/09/19 01:34:33;;;;;;;5.97;5.37;;;11.70;99.90;;;;;;5040261;28;20494;-57
2021/09/19 01:37:00;;;;;;;5.57;5.07;;;11.70;99.90;;;;;;5040238;28;20513;-49
2021/09/19 01:39:27;;;;;;;5.70;5.00;;;11.70;99.90;;;;;;5040444;28;20498;-51
2021/09/19 01:41:56;;;;;;;6.00;5.50;;;11.70;1.00;;;;;;5039893;28;20517;-53
2021/09/19 01:44:23;;;;;;;6.33;5.53;;;11.60;99.90;;;;;;5040086;28;20490;-54
2021/09/19 01:46:51;;;;;;;7.00;5.47;;;11.60;98.40;;;;;;5052705;28;20470;-53
2021/09/19 01:49:18;;;;;;;5.43;4.93;;;11.60;99.90;;;;;;5060353;28;20501;-53
2021/09/19 01:51:45;;;;;;;7.00;5.57;;;11.50;1.00;;;;;;5059808;28;20486;-53
2021/09/19 01:54:12;;;;;;;6.03;5.50;;;11.50;99.90;;;;;;5059899;28;20533;-55
2021/09/19 01:56:39;;;;;;;6.00;5.50;;;11.50;99.90;;;;;;5059572;28;20501;-54
2021/09/19 01:59:07;;;;;;;5.97;5.47;;;11.50;1.00;;;;;;5059947;28;20486;-55
2021/09/19 02:01:34;;;;;;;5.77;5.07;;;11.50;52.80;;;;;;5059334;28;20493;-53
2021/09/19 02:04:02;;;;;;;6.53;5.97;;;11.40;1.00;;;;;;5059761;28;20458;-55
2021/09/19 02:06:30;;;;;;;5.70;5.20;;;11.40;23.50;;;;;;5059716;28;20466;-54
2021/09/19 02:08:57;;;;;;;5.30;4.90;;;11.30;99.90;;;;;;5059471;28;20516;-53
2021/09/19 02:11:24;;;;;;;5.30;4.80;;;11.30;99.90;;;;;;5041594;28;20497;-50
2021/09/19 02:13:51;;;;;;;5.17;4.77;;;11.30;99.90;;;;;;5039281;28;20606;-56
2021/09/19 02:16:22;;;;;;;6.10;4.53;;;11.20;99.90;;;;;;5039430;28;20499;-51
2021/09/19 02:18:49;;;;;;;5.80;5.30;;;11.20;99.90;;;;;;5039727;28;20744;-52
2021/09/19 02:21:17;;;;;;;6.00;5.40;;;11.20;99.90;;;;;;5039772;28;20467;-55
2021/09/19 02:23:44;;;;;;;6.27;5.67;;;11.30;99.90;;;;;;5039511;28;20463;-49
2021/09/19 02:26:11;;;;;;;7.63;5.60;;;11.20;1.00;;;;;;5039175;28;20506;-53
2021/09/19 02:28:38;;;;;;;5.87;5.10;;;11.20;99.90;;;;;;5038960;28;20495;-53
2021/09/19 02:31:05;;;;;;;5.90;5.33;;;11.10;99.90;;;;;;5039459;28;20463;-55
2021/09/19 02:33:33;;;;;;;6.13;5.53;;;11.20;99.90;;;;;;5039163;28;20502;-53
2021/09/19 02:36:02;;;;;;;5.33;4.83;;;11.10;1.00;;;;;;5039140;28;20506;-50
2021/09/19 02:38:29;;;;;;;5.50;5.00;;;11.10;1.00;;;;;;5039038;28;20517;-51
2021/09/19 02:40:56;;;;;;;5.57;5.07;;;11.10;1.00;;;;;;5038939;28;20530;-53
2021/09/19 02:43:24;;;;;;;5.50;5.00;;;11.10;1.00;;;;;;5039034;28;20809;-55
2021/09/19 02:45:51;;;;;;;6.80;4.97;;;11.00;1.00;;;;;;5043298;28;20905;-57
2021/09/19 02:48:19;;;;;;;6.33;5.30;;;11.00;1.00;;;;;;5058534;28;20504;-50
2021/09/19 02:50:47;;;;;;;4.93;4.53;;;11.10;4.10;;;;;;5058593;28;20531;-54
2021/09/19 02:53:14;;;;;;;6.73;4.63;;;11.10;1.00;;;;;;5059150;28;20498;-55
2021/09/19 02:55:41;;;;;;;5.50;5.00;;;11.10;1.00;;;;;;5058707;28;20525;-52
2021/09/19 02:58:08;;;;;;;5.20;4.70;;;11.00;1.00;;;;;;5058553;28;20466;-48
2021/09/19 03:00:36;;;;;;;5.83;4.73;;;11.00;1.00;;;;;;5058677;28;20494;-55
2021/09/19 03:03:03;;;;;;;4.83;4.40;;;11.10;69.70;;;;;;5058944;28;20519;-51
2021/09/19 03:05:30;;;;;;;4.20;3.80;;;11.10;99.90;;;;;;5058530;28;20876;-55
2021/09/19 03:07:59;;;;;;;5.20;4.70;;;11.10;99.90;;;;;;5058260;28;20458;-53
2021/09/19 03:10:26;;;;;;;5.07;4.57;;;11.00;1.00;;;;;;5048744;28;20582;-54
2021/09/19 03:12:53;;;;;;;5.10;4.60;;;11.00;1.00;;;;;;5038073;28;20819;-54
2021/09/19 03:15:20;;;;;;;6.20;4.60;;;11.00;1.00;;;;;;5037840;28;20490;-55
2021/09/19 03:17:47;;;;;;;4.40;4.00;;;11.00;1.00;;;;;;5037979;28;20812;-56
2021/09/19 03:20:16;;;;;;;5.67;4.70;;;11.00;1.00;;;;;;5037917;28;20506;-54
2021/09/19 03:22:43;;;;;;;5.10;4.60;;;10.90;1.00;;;;;;5057560;28;20466;-53
2021/09/19 03:25:14;;;;;;;4.53;4.13;;;10.90;99.90;;;;;;5058317;28;20529;-52
2021/09/19 03:27:41;;;;;;;6.13;4.77;;;10.90;99.90;;;;;;5057975;28;20493;-55
2021/09/19 03:30:13;;;;;;;5.70;5.10;;;10.90;99.90;;;;;;5057929;28;20516;-57
2021/09/19 03:32:41;;;;;;;4.80;4.40;;;10.90;1.00;;;;;;5057895;28;20760;-58
2021/09/19 03:35:09;;;;;;;5.80;5.20;;;10.90;1.00;;;;;;5058229;28;20533;-57
2021/09/19 03:37:36;;;;;;;10.70;6.07;;;10.90;1.00;;;;;;5057873;28;20552;-56
2021/09/19 03:40:04;;;;;;;6.90;6.20;;;10.80;1.00;;;;;;5057631;28;20813;-55
2021/09/19 03:42:32;;;;;;;7.23;5.10;;;10.80;62.40;;;;;;5057491;28;20505;-51
2021/09/19 03:44:59;;;;;;;6.80;6.10;;;10.80;99.90;;;;;;5057698;28;20498;-56
2021/09/19 03:47:26;;;;;;;6.77;6.10;;;10.80;99.90;;;;;;5057625;28;20466;-55
2021/09/19 03:49:53;;;;;;;6.70;6.13;;;10.80;99.90;;;;;;5057487;28;20787;-57
2021/09/19 03:52:20;;;;;;;7.13;5.70;;;10.90;99.90;;;;;;5057801;28;20501;-57
2021/09/19 03:54:47;;;;;;;7.33;5.83;;;10.90;99.90;;;;;;5057330;28;20522;-51
2021/09/19 03:57:14;;;;;;;6.13;5.63;;;10.90;99.90;;;;;;5057629;28;20786;-55
2021/09/19 03:59:42;;;;;;;8.50;6.40;;;10.90;99.90;;;;;;5057835;28;20498;-57
2021/09/19 04:02:09;;;;;;;6.77;6.17;;;10.80;99.90;;;;;;5057161;28;20462;-55
2021/09/19 04:04:36;;;;;;;6.33;5.73;;;10.80;99.90;;;;;;5057563;28;20493;-59
2021/09/19 04:07:03;;;;;;;8.07;5.90;;;10.80;99.90;;;;;;5057428;28;20470;-56
2021/09/19 04:09:30;;;;;;;7.37;6.67;;;10.80;99.90;;;;;;5055278;28;20512;-57
2021/09/19 04:11:57;;;;;;;6.80;6.00;;;10.80;99.90;;;;;;5036740;28;20466;-55
2021/09/19 04:14:24;;;;;;;5.93;5.43;;;10.70;99.90;;;;;;5037185;28;20576;-57
2021/09/19 04:16:55;;;;;;;6.17;5.57;;;10.70;99.90;;;;;;5037533;28;20920;-52
2021/09/19 04:19:22;;;;;;;6.67;6.07;;;10.70;99.90;;;;;;5037307;28;20824;-58
2021/09/19 04:21:49;;;;;;;7.03;6.30;;;10.70;99.90;;;;;;5036701;28;20498;-58
2021/09/19 04:24:16;;;;;;;6.13;5.63;;;10.60;99.90;;;;;;5036880;28;20495;-58
2021/09/19 04:26:43;;;;;;;6.70;5.80;;;10.60;99.90;;;;;;5036914;28;20471;-57
2021/09/19 04:29:10;;;;;;;6.60;6.00;;;10.60;99.90;;;;;;5036719;28;20494;-58
2021/09/19 04:31:37;;;;;;;6.70;6.07;;;10.60;99.90;;;;;;5037404;28;20502;-59
2021/09/19 04:34:05;;;;;;;8.90;5.90;;;10.60;99.90;;;;;;5036656;28;20470;-57
2021/09/19 04:36:32;;;;;;;7.23;6.57;;;10.60;99.90;;;;;;5037206;28;20463;-56
2021/09/19 04:38:59;;;;;;;7.10;6.40;;;10.60;99.90;;;;;;5036993;28;20967;-57
2021/09/19 04:41:26;;;;;;;7.00;6.37;;;10.60;99.90;;;;;;5037055;28;20835;-58
2021/09/19 04:43:53;;;;;;;6.50;6.00;;;10.60;99.90;;;;;;5036505;28;20499;-59
2021/09/19 04:46:19;;;;;;;7.63;6.60;;;10.50;99.90;;;;;;5045926;28;20512;-59
2021/09/19 04:48:47;;;;;;;8.47;5.40;;;10.50;99.90;;;;;;5056872;28;20516;-59
2021/09/19 04:51:16;;;;;;;6.10;5.50;;;10.50;99.90;;;;;;5056975;28;20830;-59
2021/09/19 04:53:43;;;;;;;7.20;6.50;;;10.50;99.90;;;;;;5056973;28;20583;-58
2021/09/19 04:56:10;;;;;;;6.57;6.07;;;10.50;99.90;;;;;;5056773;28;20529;-58
2021/09/19 04:58:38;;;;;;;6.80;6.20;;;10.50;99.90;;;;;;5056229;28;20837;-58
2021/09/19 05:01:04;;;;;;;6.70;6.00;;;10.50;99.90;;;;;;5057162;28;20493;-59
2021/09/19 05:03:31;;;;;;;7.00;6.40;;;10.40;99.90;;;;;;5056795;28;20501;-55
2021/09/19 05:06:01;;;;;;;7.27;6.63;;;10.50;99.90;;;;;;5056608;28;20458;-59
2021/09/19 05:08:30;;;;;;;6.67;5.87;;;10.50;99.90;;;;;;5056848;28;20555;-58
2021/09/19 05:10:57;;;;;;;6.70;6.10;;;10.50;99.90;;;;;;5056474;28;20490;-58
2021/09/19 05:13:24;;;;;;;7.07;6.37;;;10.50;99.90;;;;;;5056887;28;20546;-60
2021/09/19 05:15:51;;;;;;;6.80;6.10;;;10.40;99.90;;;;;;5056192;28;20501;-60
2021/09/19 05:18:17;;;;;;;6.33;5.70;;;10.40;99.90;;;;;;5056264;28;20501;-59
2021/09/19 05:20:44;;;;;;;6.70;6.10;;;10.40;99.90;;;;;;5056602;28;20840;-60
2021/09/19 05:23:12;;;;;;;7.43;6.77;;;10.40;99.90;;;;;;5056645;28;20482;-60
2021/09/19 05:25:40;;;;;;;6.80;6.20;;;10.40;99.90;;;;;;5056931;28;20485;-60
2021/09/19 05:28:07;;;;;;;7.67;6.70;;;10.40;99.90;;;;;;5056080;28;20810;-60
2021/09/19 05:30:35;;;;;;;6.83;6.13;;;10.50;99.90;;;;;;5056705;28;20557;-60
2021/09/19 05:33:01;;;;;;;6.47;5.87;;;10.50;99.90;;;;;;5056662;28;20502;-60
2021/09/19 05:35:28;;;;;;;6.47;5.87;;;10.50;99.90;;;;;;5056419;28;20537;-60
2021/09/19 05:37:58;;;;;;;6.00;5.50;;;10.40;99.90;;;;;;5058880;28;20485;-59
2021/09/19 05:40:25;;;;;;;6.67;5.97;;;10.50;99.90;;;;;;5060000;28;20896;-60
2021/09/19 05:42:53;;;;;;;6.67;5.97;;;10.50;99.90;;;;;;5059863;28;20466;-60
2021/09/19 05:45:20;;;;;;;6.47;5.87;;;10.50;99.90;;;;;;5059575;28;20500;-61
2021/09/19 05:47:47;;;;;;;7.57;6.50;;;10.60;99.90;;;;;;5059667;28;20544;-59
2021/09/19 05:50:14;;;;;;;7.93;7.23;;;10.60;99.90;;;;;;5059883;28;20502;-60
2021/09/19 05:52:41;;;;;;;7.40;6.70;;;10.70;99.90;;;;;;5059793;28;20464;-60
2021/09/19 05:55:08;;;;;;;7.97;7.23;;;10.70;99.90;;;;;;5059845;28;20529;-60
2021/09/19 05:57:35;;;;;;;6.90;6.20;;;10.90;99.90;;;;;;5059847;28;20462;-60
2021/09/19 06:00:05;;;;;;;7.03;6.47;;;11.00;99.90;;;;;;5059422;28;20502;-60
2021/09/19 06:02:33;;;;;;;8.70;6.50;;;11.00;99.90;;;;;;5059802;28;20936;-60
2021/09/19 06:04:59;;;;;;;7.00;6.30;;;11.10;99.90;;;;;;5059681;28;20464;-60
2021/09/19 06:07:27;;;;;;;8.30;6.73;;;11.20;99.90;;;;;;5059849;28;20515;-60
2021/09/19 06:09:54;;;;;;;7.93;6.40;;;11.40;99.90;;;;;;5053761;28;20459;-60
2021/09/19 06:12:20;;;;;;;7.10;6.50;;;11.50;99.90;;;;;;5039336;28;20498;-60
2021/09/19 06:14:50;;;;;;;7.70;7.00;;;11.70;99.90;;;;;;5039719;28;20483;-60
2021/09/19 06:17:20;;;;;;;6.43;5.83;;;11.80;99.90;;;;;;5039622;28;20486;-60
2021/09/19 06:19:51;;;;;;;7.70;6.47;;;12.00;99.90;;;;;;5039426;28;20473;-60
2021/09/19 06:22:19;;;;;;;6.37;5.77;;;12.10;99.90;;;;;;5039118;28;20502;-60
2021/09/19 06:24:46;;;;;;;6.37;5.77;;;12.30;99.90;;;;;;5039616;28;20528;-60
2021/09/19 06:27:13;;;;;;;5.97;5.47;;;12.40;99.90;;;;;;5039666;28;20502;-61
2021/09/19 06:29:43;;;;;;;8.07;6.60;;;12.60;99.90;;;;;;5038226;28;20530;-60
2021/09/19 06:32:11;;;;;;;7.30;6.70;;;12.70;1.00;;;;;;5038886;28;20473;-60
2021/09/19 06:34:41;;;;;;;6.80;6.20;;;12.90;99.90;;;;;;5039235;28;20553;-60
2021/09/19 06:37:08;;;;;;;7.37;6.70;;;13.10;99.90;;;;;;5039236;28;20760;-60
2021/09/19 06:39:36;;;;;;;7.73;6.70;;;13.30;1.00;;;;;;5039154;28;20889;-60
2021/09/19 06:42:06;;;;;;;5.53;5.07;;;13.50;99.90;;;;;;5038913;28;20494;-60
2021/09/19 06:44:33;;;;;;;7.13;5.43;;;13.60;99.90;;;;;;5038799;28;20812;-60
2021/09/19 06:47:00;;;;;;;6.97;6.23;;;13.90;1.00;;;;;;5052962;28;20494;-60
2021/09/19 06:49:29;;;;;;;6.47;5.87;;;14.20;99.90;;;;;;5057906;28;20497;-60
2021/09/19 06:51:57;;;;;;;5.60;5.10;;;14.40;1.00;;;;;;5059091;28;20537;-59
2021/09/19 06:54:28;;;;;;;6.40;5.80;;;14.60;39.40;;;;;;5058621;28;20768;-59
2021/09/19 06:56:54;;;;;;;5.70;5.17;;;15.00;99.90;;;;;;5058092;28;20540;-59
2021/09/19 06:59:21;;;;;;;5.63;5.23;;;15.20;1.00;;;;;;5057607;28;20762;-59
2021/09/19 07:01:48;;;;;;;5.33;4.83;;;15.50;99.90;;;;;;5058247;28;20527;-59
2021/09/19 07:04:15;;;;;;;4.80;4.37;;;15.70;99.90;;;;;;5057611;28;20459;-59
2021/09/19 07:06:47;;;;;;;5.17;4.77;;;15.80;31.60;;;;;;5057506;28;20453;-59
2021/09/19 07:09:19;;;;;;;5.20;4.80;;;15.80;1.00;;;;;;5057478;28;20458;-59
2021/09/19 07:11:46;;;;;;;4.53;4.00;;;16.00;1.00;;;;;;5054909;28;20516;-59
2021/09/19 07:14:13;;;;;;;4.57;4.17;;;16.30;1.00;;;;;;5057120;28;20455;-58
2021/09/19 07:16:42;;;;;;;4.60;4.27;;;16.40;1.00;;;;;;5057362;28;20521;-58
2021/09/19 07:19:09;;;;;;;7.00;4.67;;;16.70;1.00;;;;;;5056906;28;20490;-58
2021/09/19 07:21:36;;;;;;;4.13;3.83;;;16.80;1.00;;;;;;5057411;28;20493;-58
2021/09/19 07:24:05;;;;;;;4.10;3.80;;;16.80;1.00;;;;;;5057086;28;20456;-56
2021/09/19 07:26:33;;;;;;;4.90;4.40;;;17.10;1.00;;;;;;5057004;28;20483;-55
2021/09/19 07:29:01;;;;;;;4.80;4.30;;;17.20;1.00;;;;;;5057024;28;20569;-57
2021/09/19 07:31:28;;;;;;;4.50;4.10;;;17.40;1.00;;;;;;5057354;28;20498;-56
2021/09/19 07:34:01;;;;;;;4.97;4.13;;;17.50;1.00;;;;;;5056706;28;20493;-54
2021/09/19 07:36:33;;;;;;;4.70;4.30;;;17.70;1.00;;;;;;5057191;28;20552;-54
2021/09/19 07:39:02;;;;;;;6.00;4.77;;;17.90;1.00;;;;;;5054566;28;20454;-56
2021/09/19 07:41:34;;;;;;;4.70;4.30;;;18.00;1.00;;;;;;5057186;28;20478;-58
2021/09/19 07:44:07;;;;;;;6.17;4.30;;;18.10;1.00;;;;;;5056838;28;20489;-56
2021/09/19 07:46:40;;;;;;;4.53;4.13;;;18.30;1.00;;;;;;5057059;28;20832;-57
2021/09/19 07:49:09;;;;;;;4.87;4.07;;;18.60;1.00;;;;;;5057584;28;20497;-58
2021/09/19 07:51:37;;;;;;;5.20;4.60;;;18.70;1.00;;;;;;5057236;28;20490;-57
2021/09/19 07:54:06;;;;;;;7.47;5.03;;;18.90;1.00;;;;;;5057891;28;20504;-57
2021/09/19 07:56:36;;;;;;;4.93;4.53;;;19.10;1.00;;;;;;5057337;28;20533;-55
2021/09/19 07:59:05;;;;;;;5.60;5.10;;;19.30;1.00;;;;;;5057729;28;20535;-56
2021/09/19 08:01:35;;;;;;;5.00;4.53;;;19.30;1.00;;;;;;5057253;28;20462;-54
2021/09/19 08:04:02;;;;;;;6.13;5.10;;;19.40;99.90;;;;;;5057258;28;20466;-53
2021/09/19 08:06:30;;;;;;;6.17;5.67;;;19.40;99.90;;;;;;5057494;28;20515;-54
2021/09/19 08:09:00;;;;;;;6.00;5.60;;;19.60;99.90;;;;;;5057451;28;20509;-53
2021/09/19 08:11:32;;;;;;;5.50;5.10;;;20.00;99.90;;;;;;5039319;28;20487;-50
2021/09/19 08:14:06;;;;;;;5.97;5.37;;;20.30;99.90;;;;;;5040571;28;20509;-56
2021/09/19 08:16:36;;;;;;;5.40;5.00;;;20.40;99.90;;;;;;5054667;28;20494;-55
2021/09/19 08:19:06;;;;;;;5.53;4.93;;;20.70;99.90;;;;;;5036846;28;20475;-54
2021/09/19 08:21:34;;;;;;;8.07;5.33;;;20.80;99.90;;;;;;5037059;28;20470;-55
2021/09/19 08:24:02;;;;;;;5.77;5.27;;;20.90;99.90;;;;;;5040613;28;20539;-54
2021/09/19 08:26:29;;;;;;;5.50;5.10;;;20.70;99.90;;;;;;5044060;28;20499;-55
2021/09/19 08:28:58;;;;;;;5.20;4.80;;;20.70;99.90;;;;;;5050940;28;20525;-57
2021/09/19 08:31:26;;;;;;;5.40;5.00;;;20.70;99.90;;;;;;5048425;28;20462;-57
2021/09/19 08:33:53;;;;;;;5.50;5.10;;;20.70;99.90;;;;;;5053925;28;20462;-50
2021/09/19 08:36:20;;;;;;;5.03;4.63;;;20.60;99.90;;;;;;5055221;28;20535;-56
2021/09/19 08:38:49;;;;;;;5.87;5.37;;;20.80;99.90;;;;;;5049690;28;20501;-55
2021/09/19 08:41:19;;;;;;;5.40;5.00;;;21.10;99.90;;;;;;5053524;28;20466;-54
2021/09/19 08:43:49;;;;;;;5.53;5.03;;;21.10;99.90;;;;;;5052813;28;20474;-48
2021/09/19 08:46:21;;;;;;;5.50;5.10;;;21.60;99.90;;;;;;5054927;28;20545;-57
2021/09/19 08:48:52;;;;;;;4.83;4.43;;;22.10;99.90;;;;;;5049232;28;20479;-54
2021/09/19 08:51:20;;;;;;;5.00;4.67;;;22.20;99.90;;;;;;5056058;28;20970;-53
2021/09/19 08:53:47;;;;;;;5.00;4.57;;;22.20;99.90;;;;;;5056617;28;20527;-51
2021/09/19 08:56:22;;;;;;;5.00;4.60;;;22.70;99.90;;;;;;5056843;28;20581;-50
2021/09/19 08:58:49;;;;;;;5.00;4.60;;;23.30;99.90;;;;;;5056651;28;20963;-52
2021/09/19 09:01:18;;;;;;;4.73;4.43;;;23.50;99.90;;;;;;5056672;28;20505;-54
2021/09/19 09:03:45;;;;;;;5.20;4.70;;;23.90;99.90;;;;;;5056429;28;20462;-51
2021/09/19 09:06:18;;;;;;;5.00;4.27;;;24.00;99.90;;;;;;5055615;28;20892;-51
2021/09/19 09:08:47;;;;;;;4.90;4.60;;;24.20;99.90;;;;;;5055010;28;20466;-51
2021/09/19 09:11:15;;;;;;;5.10;4.47;;;23.90;99.90;;;;;;5055568;28;20498;-55
2021/09/19 09:13:44;;;;;;;5.30;4.90;;;23.90;99.90;;;;;;5060885;28;20489;-51
2021/09/19 09:16:13;;;;;;;4.97;4.60;;;24.20;99.90;;;;;;5059663;28;20529;-51
2021/09/19 09:18:42;;;;;;;4.57;4.20;;;24.10;99.90;;;;;;5060054;28;20466;-51
2021/09/19 09:21:15;;;;;;;3.90;3.70;;;24.30;99.90;;;;;;5059714;28;20513;-53
2021/09/19 09:23:46;;;;;;;5.13;4.63;;;23.80;99.90;;;;;;5067596;28;20505;-46
2021/09/19 09:26:22;;;;;;;5.63;4.43;;;23.20;99.90;;;;;;5059243;28;20493;-52
2021/09/19 09:28:54;;;;;;;5.67;5.17;;;22.20;99.90;;;;;;5059573;28;20489;-48
2021/09/19 09:31:28;;;;;;;5.10;4.80;;;21.70;99.90;;;;;;5060138;28;20462;-56
2021/09/19 09:34:13;;;;;;;4.93;4.53;;;21.50;99.90;;;;;;5060072;28;20880;-47
2021/09/19 09:36:47;;;;;;;4.03;3.73;;;21.10;99.90;;;;;;5060331;28;20529;-46
2021/09/19 09:39:33;;;;;;;4.80;4.40;;;21.00;99.90;;;;;;5060572;28;20510;-48
2021/09/19 09:42:03;;;;;;;6.47;4.93;;;20.90;99.90;;;;;;5057263;28;20467;-47
2021/09/19 09:44:44;;;;;;;5.57;5.17;;;20.60;99.90;;;;;;5074481;28;20538;-47
2021/09/19 09:47:15;;;;;;;6.53;6.03;;;20.30;99.90;;;;;;5064292;28;20485;-49
2021/09/19 09:49:50;;;;;;;6.33;5.77;;;20.20;99.90;;;;;;5060007;28;20458;-50
2021/09/19 09:52:29;;;;;;;6.50;6.00;;;20.10;99.90;;;;;;5059403;28;20465;-49
2021/09/19 09:55:01;;;;;;;5.40;5.00;;;20.20;99.90;;;;;;5059897;28;20945;-50
2021/09/19 09:58:13;;;;;;;6.07;5.47;;;20.20;99.90;;;;;;5059819;28;20833;-49
2021/09/19 10:00:42;;;;;;;6.10;5.60;;;20.30;99.90;;;;;;5021964;28;20470;-45
2021/09/19 10:03:13;;;;;;;6.47;5.97;;;20.20;99.90;;;;;;5059750;28;20458;-46
2021/09/19 10:05:41;;;;;;;6.00;5.50;;;20.30;99.90;;;;;;5059746;28;20811;-46
2021/09/19 10:08:14;;;;;;;7.30;5.87;;;20.20;99.90;;;;;;5059599;28;20458;-45
2021/09/19 10:10:44;;;;;;;6.03;5.63;;;20.20;99.90;;;;;;5047884;28;20459;-45
2021/09/19 10:13:16;;;;;;;6.10;5.60;;;20.20;99.90;;;;;;5040083;28;20476;-50
2021/09/19 10:15:43;;;;;;;6.40;5.90;;;20.20;99.90;;;;;;5039552;28;20494;-51
2021/09/19 10:18:19;;;;;;;6.23;5.73;;;20.20;99.90;;;;;;5049998;28;20543;-46
2021/09/19 10:20:50;;;;;;;6.27;5.77;;;20.20;99.90;;;;;;5059121;28;20461;-45
2021/09/19 10:23:23;;;;;;;6.47;6.00;;;20.20;99.90;;;;;;5059176;28;20462;-45
2021/09/19 10:26:00;;;;;;;6.47;6.00;;;20.30;99.90;;;;;;5058991;28;20936;-50
2021/09/19 10:28:48;;;;;;;6.87;6.37;;;20.40;99.90;;;;;;5037876;28;20564;-51
2021/09/19 10:31:21;;;;;;;6.00;5.60;;;20.40;99.90;;;;;;5025236;28;20481;-50
2021/09/19 10:33:56;;;;;;;5.90;5.50;;;20.20;99.90;;;;;;5038940;28;20481;-53
2021/09/19 10:36:34;;;;;;;6.33;5.77;;;20.10;99.90;;;;;;5038960;28;20526;-50
2021/09/19 10:39:21;;;;;;;6.60;6.10;;;20.10;99.90;;;;;;5039108;28;20473;-52
2021/09/19 10:42:30;;;;;;;6.37;5.87;;;20.00;99.90;;;;;;5020812;28;20772;-46
2021/09/19 10:45:02;;;;;;;6.83;6.23;;;20.20;99.90;;;;;;5029707;28;20510;-50
2021/09/19 10:47:33;;;;;;;6.83;6.27;;;20.40;99.90;;;;;;5057070;28;20465;-46
2021/09/19 10:50:21;;;;;;;7.87;7.30;;;20.40;99.90;;;;;;5058740;28;20466;-49
2021/09/19 10:52:57;;;;;;;6.50;6.00;;;20.30;99.90;;;;;;5057788;28;20461;-53
2021/09/19 10:55:31;;;;;;;6.10;5.70;;;20.30;99.90;;;;;;5056227;28;20439;-52
2021/09/19 10:58:10;;;;;;;6.63;6.13;;;20.30;99.90;;;;;;5055557;28;20993;-49
2021/09/19 11:00:46;;;;;;;5.70;5.20;;;20.40;99.90;;;;;;5038683;28;20833;-51
2021/09/19 11:03:15;;;;;;;5.67;5.27;;;20.50;99.90;;;;;;5038566;28;20916;-50
2021/09/19 11:05:45;;;;;;;5.83;5.43;;;20.50;99.90;;;;;;5038731;28;20460;-49
2021/09/19 11:08:50;;;;;;;6.53;5.00;;;20.30;99.90;;;;;;5038178;28;20513;-48
2021/09/19 11:11:29;;;;;;;6.07;5.57;;;20.20;99.90;;;;;;5052146;28;20777;-48
2021/09/19 11:14:06;;;;;;;5.40;5.00;;;20.20;99.90;;;;;;5057584;28;20458;-51
2021/09/19 11:16:41;;;;;;;5.80;5.40;;;20.20;99.90;;;;;;5057798;28;20498;-51
2021/09/19 11:19:15;;;;;;;5.83;5.43;;;20.30;99.90;;;;;;5058498;28;20477;-47
2021/09/19 11:21:49;;;;;;;5.33;4.90;;;20.40;99.90;;;;;;5039732;28;20454;-52
2021/09/19 11:24:26;;;;;;;5.57;5.17;;;20.50;99.90;;;;;;5057099;28;20458;-50
2021/09/19 11:26:58;;;;;;;5.60;5.20;;;20.30;99.90;;;;;;5057886;28;20454;-48
2021/09/19 11:29:28;;;;;;;4.90;4.50;;;20.10;99.90;;;;;;5045823;28;20838;-49
2021/09/19 11:31:59;;;;;;;6.20;5.80;;;20.00;99.90;;;;;;5045390;28;20864;-55
2021/09/19 11:34:32;;;;;;;5.73;5.33;;;19.90;99.90;;;;;;5047807;28;20466;-53
2021/09/19 11:37:00;;;;;;;6.07;5.47;;;19.80;99.90;;;;;;5052728;28;20494;-46
2021/09/19 11:39:33;;;;;;;5.90;5.50;;;19.50;99.90;;;;;;5053996;28;20466;-47
2021/09/19 11:42:10;;;;;;;5.70;5.23;;;19.50;99.90;;;;;;5052559;28;20466;-52
2021/09/19 11:44:43;;;;;;;5.80;5.30;;;19.50;99.90;;;;;;5055113;28;20458;-52
2021/09/19 11:47:13;;;;;;;5.97;5.57;;;19.30;99.90;;;;;;5050524;28;20498;-48
2021/09/19 11:49:41;;;;;;;6.17;5.67;;;19.00;99.90;;;;;;5056049;28;20559;-48
2021/09/19 11:52:10;;;;;;;5.50;5.00;;;18.90;99.90;;;;;;5056736;28;20946;-48
2021/09/19 11:54:37;;;;;;;5.00;4.67;;;19.00;99.90;;;;;;5055454;28;20462;-50
2021/09/19 11:57:08;;;;;;;5.57;5.17;;;19.10;99.90;;;;;;5056556;28;20870;-46
2021/09/19 11:59:43;;;;;;;5.47;5.07;;;19.10;99.90;;;;;;5056855;28;20912;-46
2021/09/19 12:02:10;;;;;;;5.33;4.93;;;19.10;99.90;;;;;;5054286;28;20886;-46
2021/09/19 12:04:41;;;;;;;6.37;4.70;;;19.00;99.90;;;;;;5056197;28;20501;-47
2021/09/19 12:07:11;;;;;;;5.80;5.40;;;18.60;99.90;;;;;;5055151;28;20516;-49
2021/09/19 12:09:48;;;;;;;5.93;5.43;;;18.50;99.90;;;;;;5054586;28;20829;-53
2021/09/19 12:12:20;;;;;;;5.67;5.20;;;18.40;99.90;;;;;;5056854;28;20492;-50
2021/09/19 12:14:53;;;;;;;5.43;5.03;;;18.60;99.90;;;;;;5055170;28;20494;-50
2021/09/19 12:17:24;;;;;;;5.57;5.17;;;18.50;99.90;;;;;;5056921;28;20525;-53
2021/09/19 12:19:58;;;;;;;5.17;4.77;;;18.40;99.90;;;;;;5055103;28;20466;-55
2021/09/19 12:22:26;;;;;;;4.83;4.53;;;18.30;99.90;;;;;;5054432;28;20785;-51
2021/09/19 12:24:56;;;;;;;5.90;5.43;;;18.40;99.90;;;;;;5050406;28;20572;-57
2021/09/19 12:27:28;;;;;;;5.80;5.30;;;18.30;99.90;;;;;;5049990;28;20450;-55
2021/09/19 12:30:05;;;;;;;6.27;5.87;;;18.20;99.90;;;;;;5051266;28;20548;-51
2021/09/19 12:32:38;;;;;;;7.43;6.83;;;18.10;99.90;;;;;;5056571;28;20440;-49
2021/09/19 12:35:09;;;;;;;5.60;5.10;;;18.20;99.90;;;;;;5043698;28;20481;-57
2021/09/19 12:37:40;;;;;;;5.60;5.20;;;18.20;99.90;;;;;;5055645;28;20536;-53
2021/09/19 12:40:11;;;;;;;5.83;5.23;;;18.20;99.90;;;;;;5056491;28;20458;-50
2021/09/19 12:42:39;;;;;;;5.90;5.40;;;18.10;99.90;;;;;;5053853;28;20490;-53
2021/09/19 12:45:09;;;;;;;6.50;6.00;;;18.20;99.90;;;;;;5049334;28;20499;-51
2021/09/19 12:47:38;;;;;;;6.23;5.73;;;18.30;99.90;;;;;;5055165;28;20473;-50
2021/09/19 12:50:07;;;;;;;7.00;5.30;;;18.30;99.90;;;;;;5053756;28;20466;-53
2021/09/19 12:52:37;;;;;;;6.37;5.97;;;18.50;99.90;;;;;;5056759;28;20547;-47
2021/09/19 12:55:15;;;;;;;6.00;5.50;;;18.50;99.90;;;;;;5054592;28;20516;-49
2021/09/19 12:57:44;;;;;;;5.90;5.50;;;18.50;99.90;;;;;;5059372;28;20493;-47
2021/09/19 13:00:17;;;;;;;5.80;5.30;;;18.70;99.90;;;;;;5041950;28;20511;-48